sensor_id;sensor_type;location;lat;lon;timestamp;P1;durP1;ratioP1;P2;durP2;ratioP2
66012;SDS011;52783;50.502;8.190;2023-03-11T00:00:15;2.40;;;2.20;;
66012;SDS011;52783;50.502;8.190;2023-03-11T00:02:44;3.20;;;2.00;;
66012;SDS011;52783;50.502;8.190;2023-03-11T00:07:52;7.32;;;2.50;;
66012;SDS011;52783;50.502;8.190;2023-03-11T00:10:19;3.25;;;2.53;;
66012;SDS011;52783;50.502;8.190;2023-03-11T00:12:47;6.07;;;2.72;;
66012;SDS011;52783;50.502;8.190;2023-03-11T00:15:13;2.90;;;2.70;;
66012;SDS011;52783;50.502;8.190;2023-03-11T00:17:39;3.25;;;2.90;;
66012;SDS011;52783;50.502;8.190;2023-03-11T00:20:05;3.88;;;2.50;;
66012;SDS011;52783;50.502;8.190;2023-03-11T00:22:32;17.75;;;8.00;;
66012;SDS011;52783;50.502;8.190;2023-03-11T00:24:58;4.40;;;3.08;;
66012;SDS011;52783;50.502;8.190;2023-03-11T00:27:23;3.13;;;2.25;;
66012;SDS011;52783;50.502;8.190;2023-03-11T00:29:49;5.97;;;2.70;;
66012;SDS011;52783;50.502;8.190;2023-03-11T00:32:15;2.65;;;2.42;;
66012;SDS011;52783;50.502;8.190;2023-03-11T00:34:40;3.63;;;2.65;;
66012;SDS011;52783;50.502;8.190;2023-03-11T00:37:06;3.58;;;2.83;;
66012;SDS011;52783;50.502;8.190;2023-03-11T00:39:32;3.40;;;2.60;;
66012;SDS011;52783;50.502;8.190;2023-03-11T00:41:57;2.42;;;2.22;;
66012;SDS011;52783;50.502;8.190;2023-03-11T00:44:23;3.85;;;2.67;;
66012;SDS011;52783;50.502;8.190;2023-03-11T00:46:49;2.60;;;2.40;;
66012;SDS011;52783;50.502;8.190;2023-03-11T00:49:14;4.20;;;2.20;;
66012;SDS011;52783;50.502;8.190;2023-03-11T00:51:40;2.25;;;1.98;;
66012;SDS011;52783;50.502;8.190;2023-03-11T00:54:05;2.35;;;1.90;;
66012;SDS011;52783;50.502;8.190;2023-03-11T00:56:31;4.97;;;2.50;;
66012;SDS011;52783;50.502;8.190;2023-03-11T00:58:56;1.63;;;1.60;;
66012;SDS011;52783;50.502;8.190;2023-03-11T01:01:22;2.30;;;2.13;;
66012;SDS011;52783;50.502;8.190;2023-03-11T01:03:47;2.85;;;2.10;;
66012;SDS011;52783;50.502;8.190;2023-03-11T01:06:13;3.22;;;2.17;;
66012;SDS011;52783;50.502;8.190;2023-03-11T01:08:39;6.60;;;2.10;;
66012;SDS011;52783;50.502;8.190;2023-03-11T01:11:06;5.93;;;1.73;;
66012;SDS011;52783;50.502;8.190;2023-03-11T01:13:32;2.25;;;1.70;;
66012;SDS011;52783;50.502;8.190;2023-03-11T01:15:58;2.03;;;1.83;;
66012;SDS011;52783;50.502;8.190;2023-03-11T01:18:24;4.60;;;2.15;;
66012;SDS011;52783;50.502;8.190;2023-03-11T01:20:50;4.50;;;1.80;;
66012;SDS011;52783;50.502;8.190;2023-03-11T01:23:19;4.35;;;2.03;;
66012;SDS011;52783;50.502;8.190;2023-03-11T01:25:45;4.00;;;1.75;;
66012;SDS011;52783;50.502;8.190;2023-03-11T01:28:11;15.88;;;2.00;;
66012;SDS011;52783;50.502;8.190;2023-03-11T01:30:37;6.53;;;1.83;;
66012;SDS011;52783;50.502;8.190;2023-03-11T01:33:04;4.15;;;2.10;;
66012;SDS011;52783;50.502;8.190;2023-03-11T01:35:31;2.28;;;1.88;;
66012;SDS011;52783;50.502;8.190;2023-03-11T01:37:57;4.38;;;2.25;;
66012;SDS011;52783;50.502;8.190;2023-03-11T01:40:34;9.13;;;2.30;;
66012;SDS011;52783;50.502;8.190;2023-03-11T01:43:36;3.97;;;2.33;;
66012;SDS011;52783;50.502;8.190;2023-03-11T01:48:36;5.85;;;2.38;;
66012;SDS011;52783;50.502;8.190;2023-03-11T01:51:03;7.80;;;2.05;;
66012;SDS011;52783;50.502;8.190;2023-03-11T01:53:29;3.80;;;2.10;;
66012;SDS011;52783;50.502;8.190;2023-03-11T01:55:55;7.63;;;2.10;;
66012;SDS011;52783;50.502;8.190;2023-03-11T01:58:26;6.10;;;2.33;;
66012;SDS011;52783;50.502;8.190;2023-03-11T02:00:55;2.22;;;2.00;;
66012;SDS011;52783;50.502;8.190;2023-03-11T02:03:28;9.13;;;2.30;;
66012;SDS011;52783;50.502;8.190;2023-03-11T02:05:56;4.20;;;2.40;;
66012;SDS011;52783;50.502;8.190;2023-03-11T02:08:25;8.55;;;2.60;;
66012;SDS011;52783;50.502;8.190;2023-03-11T02:10:52;4.35;;;2.35;;
66012;SDS011;52783;50.502;8.190;2023-03-11T02:13:18;6.80;;;2.47;;
66012;SDS011;52783;50.502;8.190;2023-03-11T02:15:44;9.18;;;2.35;;
66012;SDS011;52783;50.502;8.190;2023-03-11T02:18:11;5.68;;;2.33;;
66012;SDS011;52783;50.502;8.190;2023-03-11T02:20:53;6.47;;;2.80;;
66012;SDS011;52783;50.502;8.190;2023-03-11T02:23:51;7.88;;;2.55;;
66012;SDS011;52783;50.502;8.190;2023-03-11T02:29:50;4.13;;;2.50;;
66012;SDS011;52783;50.502;8.190;2023-03-11T02:32:18;2.72;;;2.03;;
66012;SDS011;52783;50.502;8.190;2023-03-11T02:34:44;5.28;;;2.85;;
66012;SDS011;52783;50.502;8.190;2023-03-11T02:37:10;7.35;;;2.60;;
66012;SDS011;52783;50.502;8.190;2023-03-11T02:39:40;6.40;;;2.65;;
66012;SDS011;52783;50.502;8.190;2023-03-11T02:42:23;5.82;;;2.53;;
66012;SDS011;52783;50.502;8.190;2023-03-11T02:45:04;4.57;;;2.40;;
66012;SDS011;52783;50.502;8.190;2023-03-11T02:47:33;2.80;;;2.38;;
66012;SDS011;52783;50.502;8.190;2023-03-11T02:50:01;5.82;;;2.50;;
66012;SDS011;52783;50.502;8.190;2023-03-11T02:52:27;5.10;;;2.72;;
66012;SDS011;52783;50.502;8.190;2023-03-11T02:54:55;6.30;;;2.45;;
66012;SDS011;52783;50.502;8.190;2023-03-11T02:57:21;6.07;;;2.63;;
66012;SDS011;52783;50.502;8.190;2023-03-11T02:59:46;3.97;;;2.63;;
66012;SDS011;52783;50.502;8.190;2023-03-11T03:02:12;2.92;;;2.30;;
66012;SDS011;52783;50.502;8.190;2023-03-11T03:04:37;5.00;;;3.10;;
66012;SDS011;52783;50.502;8.190;2023-03-11T03:07:03;6.97;;;2.70;;
66012;SDS011;52783;50.502;8.190;2023-03-11T03:09:28;3.63;;;2.92;;
66012;SDS011;52783;50.502;8.190;2023-03-11T03:11:54;7.50;;;2.85;;
66012;SDS011;52783;50.502;8.190;2023-03-11T03:14:20;8.98;;;3.05;;
66012;SDS011;52783;50.502;8.190;2023-03-11T03:16:45;8.75;;;3.63;;
66012;SDS011;52783;50.502;8.190;2023-03-11T03:19:11;3.65;;;2.92;;
66012;SDS011;52783;50.502;8.190;2023-03-11T03:21:36;4.82;;;2.97;;
66012;SDS011;52783;50.502;8.190;2023-03-11T03:24:02;7.78;;;3.00;;
66012;SDS011;52783;50.502;8.190;2023-03-11T03:26:27;7.22;;;3.08;;
66012;SDS011;52783;50.502;8.190;2023-03-11T03:28:53;10.02;;;3.53;;
66012;SDS011;52783;50.502;8.190;2023-03-11T03:31:18;12.23;;;3.33;;
66012;SDS011;52783;50.502;8.190;2023-03-11T03:33:45;11.85;;;3.95;;
66012;SDS011;52783;50.502;8.190;2023-03-11T03:36:11;7.78;;;3.90;;
66012;SDS011;52783;50.502;8.190;2023-03-11T03:38:38;5.32;;;3.40;;
66012;SDS011;52783;50.502;8.190;2023-03-11T03:41:03;12.48;;;4.00;;
66012;SDS011;52783;50.502;8.190;2023-03-11T03:43:30;6.90;;;3.80;;
66012;SDS011;52783;50.502;8.190;2023-03-11T03:45:56;9.75;;;4.05;;
66012;SDS011;52783;50.502;8.190;2023-03-11T03:48:23;3.30;;;2.75;;
66012;SDS011;52783;50.502;8.190;2023-03-11T03:50:49;5.22;;;3.40;;
66012;SDS011;52783;50.502;8.190;2023-03-11T03:53:14;5.60;;;3.17;;
66012;SDS011;52783;50.502;8.190;2023-03-11T03:55:40;7.82;;;3.05;;
66012;SDS011;52783;50.502;8.190;2023-03-11T03:58:05;9.52;;;3.25;;
66012;SDS011;52783;50.502;8.190;2023-03-11T04:00:31;9.95;;;2.80;;
66012;SDS011;52783;50.502;8.190;2023-03-11T04:02:56;8.48;;;2.88;;
66012;SDS011;52783;50.502;8.190;2023-03-11T04:05:22;10.73;;;3.10;;
66012;SDS011;52783;50.502;8.190;2023-03-11T04:07:50;4.85;;;2.47;;
66012;SDS011;52783;50.502;8.190;2023-03-11T04:10:16;6.53;;;3.15;;
66012;SDS011;52783;50.502;8.190;2023-03-11T04:12:42;4.70;;;2.70;;
66012;SDS011;52783;50.502;8.190;2023-03-11T04:15:07;11.32;;;3.55;;
66012;SDS011;52783;50.502;8.190;2023-03-11T04:17:33;11.80;;;3.55;;
66012;SDS011;52783;50.502;8.190;2023-03-11T04:20:00;7.95;;;3.65;;
66012;SDS011;52783;50.502;8.190;2023-03-11T04:22:25;7.82;;;3.90;;
66012;SDS011;52783;50.502;8.190;2023-03-11T04:24:51;7.03;;;3.55;;
66012;SDS011;52783;50.502;8.190;2023-03-11T04:27:16;9.00;;;3.40;;
66012;SDS011;52783;50.502;8.190;2023-03-11T04:29:42;6.88;;;3.70;;
66012;SDS011;52783;50.502;8.190;2023-03-11T04:32:07;6.75;;;3.53;;
66012;SDS011;52783;50.502;8.190;2023-03-11T04:34:33;7.32;;;3.70;;
66012;SDS011;52783;50.502;8.190;2023-03-11T04:36:58;10.95;;;4.45;;
66012;SDS011;52783;50.502;8.190;2023-03-11T04:39:24;7.07;;;3.50;;
66012;SDS011;52783;50.502;8.190;2023-03-11T04:41:49;11.77;;;4.20;;
66012;SDS011;52783;50.502;8.190;2023-03-11T04:44:15;6.97;;;3.55;;
66012;SDS011;52783;50.502;8.190;2023-03-11T04:46:40;9.18;;;3.80;;
66012;SDS011;52783;50.502;8.190;2023-03-11T04:49:06;9.57;;;3.38;;
66012;SDS011;52783;50.502;8.190;2023-03-11T04:51:32;7.38;;;3.72;;
66012;SDS011;52783;50.502;8.190;2023-03-11T04:53:58;4.93;;;3.20;;
66012;SDS011;52783;50.502;8.190;2023-03-11T04:56:23;5.97;;;2.42;;
66012;SDS011;52783;50.502;8.190;2023-03-11T04:58:49;6.18;;;2.80;;
66012;SDS011;52783;50.502;8.190;2023-03-11T05:01:14;7.88;;;2.83;;
66012;SDS011;52783;50.502;8.190;2023-03-11T05:03:40;5.75;;;2.80;;
66012;SDS011;52783;50.502;8.190;2023-03-11T05:06:05;7.50;;;2.67;;
66012;SDS011;52783;50.502;8.190;2023-03-11T05:08:31;10.65;;;3.13;;
66012;SDS011;52783;50.502;8.190;2023-03-11T05:10:57;3.60;;;2.65;;
66012;SDS011;52783;50.502;8.190;2023-03-11T05:13:22;9.82;;;3.08;;
66012;SDS011;52783;50.502;8.190;2023-03-11T05:15:48;5.95;;;3.00;;
66012;SDS011;52783;50.502;8.190;2023-03-11T05:18:13;8.18;;;3.40;;
66012;SDS011;52783;50.502;8.190;2023-03-11T05:20:39;5.55;;;2.85;;
66012;SDS011;52783;50.502;8.190;2023-03-11T05:23:05;12.60;;;3.63;;
66012;SDS011;52783;50.502;8.190;2023-03-11T05:25:31;6.70;;;3.08;;
66012;SDS011;52783;50.502;8.190;2023-03-11T05:27:56;9.20;;;3.70;;
66012;SDS011;52783;50.502;8.190;2023-03-11T05:30:22;5.88;;;3.17;;
66012;SDS011;52783;50.502;8.190;2023-03-11T05:32:47;11.23;;;3.00;;
66012;SDS011;52783;50.502;8.190;2023-03-11T05:35:13;8.40;;;3.33;;
66012;SDS011;52783;50.502;8.190;2023-03-11T05:37:39;20.48;;;3.38;;
66012;SDS011;52783;50.502;8.190;2023-03-11T05:40:05;8.13;;;2.95;;
66012;SDS011;52783;50.502;8.190;2023-03-11T05:42:33;9.00;;;3.17;;
66012;SDS011;52783;50.502;8.190;2023-03-11T05:44:59;8.48;;;2.92;;
66012;SDS011;52783;50.502;8.190;2023-03-11T05:47:24;8.65;;;3.58;;
66012;SDS011;52783;50.502;8.190;2023-03-11T05:49:50;8.20;;;2.90;;
66012;SDS011;52783;50.502;8.190;2023-03-11T05:52:15;4.72;;;2.58;;
66012;SDS011;52783;50.502;8.190;2023-03-11T05:54:41;6.82;;;3.20;;
66012;SDS011;52783;50.502;8.190;2023-03-11T05:57:06;13.85;;;4.80;;
66012;SDS011;52783;50.502;8.190;2023-03-11T05:59:32;8.80;;;3.30;;
66012;SDS011;52783;50.502;8.190;2023-03-11T06:01:59;14.55;;;3.85;;
66012;SDS011;52783;50.502;8.190;2023-03-11T06:04:25;14.98;;;4.07;;
66012;SDS011;52783;50.502;8.190;2023-03-11T06:06:51;7.35;;;3.47;;
66012;SDS011;52783;50.502;8.190;2023-03-11T06:09:17;6.40;;;3.30;;
66012;SDS011;52783;50.502;8.190;2023-03-11T06:11:42;14.57;;;3.60;;
66012;SDS011;52783;50.502;8.190;2023-03-11T06:14:11;6.57;;;3.60;;
66012;SDS011;52783;50.502;8.190;2023-03-11T06:16:37;8.40;;;3.38;;
66012;SDS011;52783;50.502;8.190;2023-03-11T06:19:04;9.07;;;3.20;;
66012;SDS011;52783;50.502;8.190;2023-03-11T06:21:30;16.38;;;4.22;;
66012;SDS011;52783;50.502;8.190;2023-03-11T06:23:55;9.10;;;3.30;;
66012;SDS011;52783;50.502;8.190;2023-03-11T06:26:21;7.05;;;3.05;;
66012;SDS011;52783;50.502;8.190;2023-03-11T06:28:48;18.98;;;5.00;;
66012;SDS011;52783;50.502;8.190;2023-03-11T06:31:19;7.75;;;4.45;;
66012;SDS011;52783;50.502;8.190;2023-03-11T06:33:46;7.93;;;3.55;;
66012;SDS011;52783;50.502;8.190;2023-03-11T06:36:13;11.48;;;3.28;;
66012;SDS011;52783;50.502;8.190;2023-03-11T06:38:40;9.98;;;3.60;;
66012;SDS011;52783;50.502;8.190;2023-03-11T06:41:07;16.15;;;3.88;;
66012;SDS011;52783;50.502;8.190;2023-03-11T06:43:33;17.17;;;4.05;;
66012;SDS011;52783;50.502;8.190;2023-03-11T06:45:59;7.10;;;3.30;;
66012;SDS011;52783;50.502;8.190;2023-03-11T06:48:25;6.90;;;3.50;;
66012;SDS011;52783;50.502;8.190;2023-03-11T06:50:58;11.82;;;3.17;;
66012;SDS011;52783;50.502;8.190;2023-03-11T06:53:25;7.32;;;3.10;;
66012;SDS011;52783;50.502;8.190;2023-03-11T06:55:58;9.32;;;3.10;;
66012;SDS011;52783;50.502;8.190;2023-03-11T06:58:34;8.45;;;3.13;;
66012;SDS011;52783;50.502;8.190;2023-03-11T07:01:05;10.45;;;3.70;;
66012;SDS011;52783;50.502;8.190;2023-03-11T07:03:32;5.72;;;3.47;;
66012;SDS011;52783;50.502;8.190;2023-03-11T07:05:58;9.98;;;3.50;;
66012;SDS011;52783;50.502;8.190;2023-03-11T07:08:24;8.50;;;3.35;;
66012;SDS011;52783;50.502;8.190;2023-03-11T07:11:03;12.43;;;3.28;;
66012;SDS011;52783;50.502;8.190;2023-03-11T07:13:39;9.27;;;3.20;;
66012;SDS011;52783;50.502;8.190;2023-03-11T07:16:06;9.55;;;3.60;;
66012;SDS011;52783;50.502;8.190;2023-03-11T07:18:35;9.25;;;4.10;;
66012;SDS011;52783;50.502;8.190;2023-03-11T07:21:01;10.88;;;4.00;;
66012;SDS011;52783;50.502;8.190;2023-03-11T07:23:28;15.93;;;3.00;;
66012;SDS011;52783;50.502;8.190;2023-03-11T07:25:54;13.68;;;3.70;;
66012;SDS011;52783;50.502;8.190;2023-03-11T07:28:20;6.80;;;3.63;;
66012;SDS011;52783;50.502;8.190;2023-03-11T07:30:46;7.43;;;3.50;;
66012;SDS011;52783;50.502;8.190;2023-03-11T07:33:12;8.45;;;3.35;;
66012;SDS011;52783;50.502;8.190;2023-03-11T07:35:38;9.15;;;3.67;;
66012;SDS011;52783;50.502;8.190;2023-03-11T07:38:04;13.90;;;3.55;;
66012;SDS011;52783;50.502;8.190;2023-03-11T07:40:29;9.85;;;3.33;;
66012;SDS011;52783;50.502;8.190;2023-03-11T07:42:55;5.97;;;3.35;;
66012;SDS011;52783;50.502;8.190;2023-03-11T07:45:20;8.00;;;3.80;;
66012;SDS011;52783;50.502;8.190;2023-03-11T07:47:47;8.07;;;3.30;;
66012;SDS011;52783;50.502;8.190;2023-03-11T07:50:12;9.70;;;3.28;;
66012;SDS011;52783;50.502;8.190;2023-03-11T07:52:38;11.18;;;4.00;;
66012;SDS011;52783;50.502;8.190;2023-03-11T07:55:04;7.93;;;3.47;;
66012;SDS011;52783;50.502;8.190;2023-03-11T07:57:29;8.65;;;3.42;;
66012;SDS011;52783;50.502;8.190;2023-03-11T07:59:55;7.22;;;3.20;;
66012;SDS011;52783;50.502;8.190;2023-03-11T08:02:20;9.95;;;3.22;;
66012;SDS011;52783;50.502;8.190;2023-03-11T08:04:46;10.65;;;3.33;;
66012;SDS011;52783;50.502;8.190;2023-03-11T08:07:11;8.70;;;3.28;;
66012;SDS011;52783;50.502;8.190;2023-03-11T08:09:37;8.52;;;3.47;;
66012;SDS011;52783;50.502;8.190;2023-03-11T08:12:03;7.82;;;2.80;;
66012;SDS011;52783;50.502;8.190;2023-03-11T08:14:28;8.40;;;3.38;;
66012;SDS011;52783;50.502;8.190;2023-03-11T08:16:54;8.73;;;3.28;;
66012;SDS011;52783;50.502;8.190;2023-03-11T08:19:19;16.17;;;3.70;;
66012;SDS011;52783;50.502;8.190;2023-03-11T08:21:45;6.90;;;3.38;;
66012;SDS011;52783;50.502;8.190;2023-03-11T08:24:11;12.75;;;3.95;;
66012;SDS011;52783;50.502;8.190;2023-03-11T08:26:38;5.43;;;3.20;;
66012;SDS011;52783;50.502;8.190;2023-03-11T08:29:04;17.15;;;3.58;;
66012;SDS011;52783;50.502;8.190;2023-03-11T08:31:30;13.60;;;5.20;;
66012;SDS011;52783;50.502;8.190;2023-03-11T08:34:01;9.70;;;3.08;;
66012;SDS011;52783;50.502;8.190;2023-03-11T08:36:29;8.80;;;3.45;;
66012;SDS011;52783;50.502;8.190;2023-03-11T08:38:55;6.90;;;2.78;;
66012;SDS011;52783;50.502;8.190;2023-03-11T08:41:21;11.00;;;2.72;;
66012;SDS011;52783;50.502;8.190;2023-03-11T08:43:46;5.40;;;2.22;;
66012;SDS011;52783;50.502;8.190;2023-03-11T08:46:13;5.53;;;2.15;;
66012;SDS011;52783;50.502;8.190;2023-03-11T08:48:48;4.68;;;2.00;;
66012;SDS011;52783;50.502;8.190;2023-03-11T08:51:14;8.00;;;2.13;;
66012;SDS011;52783;50.502;8.190;2023-03-11T08:53:40;6.82;;;2.50;;
66012;SDS011;52783;50.502;8.190;2023-03-11T08:56:06;5.22;;;2.28;;
66012;SDS011;52783;50.502;8.190;2023-03-11T08:58:32;5.65;;;2.10;;
66012;SDS011;52783;50.502;8.190;2023-03-11T09:00:58;8.27;;;2.42;;
66012;SDS011;52783;50.502;8.190;2023-03-11T09:03:24;4.32;;;1.88;;
66012;SDS011;52783;50.502;8.190;2023-03-11T09:05:55;2.30;;;1.52;;
66012;SDS011;52783;50.502;8.190;2023-03-11T09:08:21;5.93;;;2.17;;
66012;SDS011;52783;50.502;8.190;2023-03-11T09:10:47;6.63;;;1.77;;
66012;SDS011;52783;50.502;8.190;2023-03-11T09:13:13;6.25;;;1.80;;
66012;SDS011;52783;50.502;8.190;2023-03-11T09:15:38;6.57;;;2.65;;
66012;SDS011;52783;50.502;8.190;2023-03-11T09:18:04;6.07;;;1.92;;
66012;SDS011;52783;50.502;8.190;2023-03-11T09:20:29;3.67;;;1.70;;
66012;SDS011;52783;50.502;8.190;2023-03-11T09:22:55;3.00;;;1.90;;
66012;SDS011;52783;50.502;8.190;2023-03-11T09:25:20;9.50;;;2.30;;
66012;SDS011;52783;50.502;8.190;2023-03-11T09:27:46;5.70;;;2.05;;
66012;SDS011;52783;50.502;8.190;2023-03-11T09:30:11;8.73;;;2.05;;
66012;SDS011;52783;50.502;8.190;2023-03-11T09:32:37;5.30;;;2.38;;
66012;SDS011;52783;50.502;8.190;2023-03-11T09:35:03;2.75;;;1.88;;
66012;SDS011;52783;50.502;8.190;2023-03-11T09:37:29;6.88;;;1.58;;
66012;SDS011;52783;50.502;8.190;2023-03-11T09:39:54;5.55;;;1.67;;
66012;SDS011;52783;50.502;8.190;2023-03-11T09:42:35;1.77;;;1.20;;
66012;SDS011;52783;50.502;8.190;2023-03-11T09:45:10;5.25;;;1.80;;
66012;SDS011;52783;50.502;8.190;2023-03-11T09:50:16;4.95;;;1.75;;
66012;SDS011;52783;50.502;8.190;2023-03-11T09:52:52;3.08;;;1.10;;
66012;SDS011;52783;50.502;8.190;2023-03-11T09:55:35;4.20;;;2.25;;
66012;SDS011;52783;50.502;8.190;2023-03-11T09:58:33;2.83;;;1.55;;
66012;SDS011;52783;50.502;8.190;2023-03-11T10:01:13;3.17;;;1.60;;
66012;SDS011;52783;50.502;8.190;2023-03-11T10:03:42;5.47;;;2.20;;
66012;SDS011;52783;50.502;8.190;2023-03-11T10:06:16;3.03;;;1.25;;
66012;SDS011;52783;50.502;8.190;2023-03-11T10:08:51;3.30;;;1.45;;
66012;SDS011;52783;50.502;8.190;2023-03-11T10:11:38;4.45;;;1.52;;
66012;SDS011;52783;50.502;8.190;2023-03-11T10:17:14;3.28;;;1.40;;
66012;SDS011;52783;50.502;8.190;2023-03-11T10:19:50;3.42;;;1.27;;
66012;SDS011;52783;50.502;8.190;2023-03-11T10:25:08;1.85;;;1.13;;
66012;SDS011;52783;50.502;8.190;2023-03-11T10:30:23;1.58;;;1.42;;
66012;SDS011;52783;50.502;8.190;2023-03-11T10:33:06;2.92;;;1.48;;
66012;SDS011;52783;50.502;8.190;2023-03-11T10:35:40;3.80;;;1.42;;
66012;SDS011;52783;50.502;8.190;2023-03-11T10:38:18;2.15;;;1.20;;
66012;SDS011;52783;50.502;8.190;2023-03-11T10:40:45;3.92;;;1.25;;
66012;SDS011;52783;50.502;8.190;2023-03-11T10:43:16;2.13;;;1.23;;
66012;SDS011;52783;50.502;8.190;2023-03-11T10:45:49;3.45;;;1.92;;
66012;SDS011;52783;50.502;8.190;2023-03-11T10:48:16;6.43;;;1.65;;
66012;SDS011;52783;50.502;8.190;2023-03-11T10:50:48;2.72;;;1.45;;
66012;SDS011;52783;50.502;8.190;2023-03-11T10:53:18;3.10;;;1.73;;
66012;SDS011;52783;50.502;8.190;2023-03-11T10:55:55;3.30;;;1.67;;
66012;SDS011;52783;50.502;8.190;2023-03-11T10:58:24;2.78;;;1.38;;
66012;SDS011;52783;50.502;8.190;2023-03-11T11:03:37;2.13;;;1.40;;
66012;SDS011;52783;50.502;8.190;2023-03-11T11:06:15;1.55;;;1.45;;
66012;SDS011;52783;50.502;8.190;2023-03-11T11:08:45;5.05;;;1.80;;
66012;SDS011;52783;50.502;8.190;2023-03-11T11:11:19;2.90;;;1.63;;
66012;SDS011;52783;50.502;8.190;2023-03-11T11:13:56;2.22;;;1.45;;
66012;SDS011;52783;50.502;8.190;2023-03-11T11:16:23;6.05;;;1.50;;
66012;SDS011;52783;50.502;8.190;2023-03-11T11:19:02;2.28;;;1.42;;
66012;SDS011;52783;50.502;8.190;2023-03-11T11:21:42;2.40;;;1.30;;
66012;SDS011;52783;50.502;8.190;2023-03-11T11:24:25;4.10;;;1.48;;
66012;SDS011;52783;50.502;8.190;2023-03-11T11:27:10;4.90;;;1.60;;
66012;SDS011;52783;50.502;8.190;2023-03-11T11:29:41;4.70;;;1.67;;
66012;SDS011;52783;50.502;8.190;2023-03-11T11:32:24;3.95;;;1.65;;
66012;SDS011;52783;50.502;8.190;2023-03-11T11:34:56;2.33;;;1.27;;
66012;SDS011;52783;50.502;8.190;2023-03-11T11:37:31;2.90;;;1.70;;
66012;SDS011;52783;50.502;8.190;2023-03-11T11:40:05;6.85;;;1.60;;
66012;SDS011;52783;50.502;8.190;2023-03-11T11:42:53;1.45;;;1.08;;
66012;SDS011;52783;50.502;8.190;2023-03-11T11:45:38;5.07;;;1.55;;
66012;SDS011;52783;50.502;8.190;2023-03-11T11:51:07;3.40;;;1.60;;
66012;SDS011;52783;50.502;8.190;2023-03-11T11:53:49;2.50;;;1.33;;
66012;SDS011;52783;50.502;8.190;2023-03-11T11:56:22;2.60;;;1.67;;
66012;SDS011;52783;50.502;8.190;2023-03-11T11:58:49;1.98;;;1.30;;
66012;SDS011;52783;50.502;8.190;2023-03-11T12:06:41;1.17;;;1.10;;
66012;SDS011;52783;50.502;8.190;2023-03-11T12:11:43;4.28;;;1.90;;
66012;SDS011;52783;50.502;8.190;2023-03-11T12:14:25;4.38;;;1.30;;
66012;SDS011;52783;50.502;8.190;2023-03-11T12:17:02;4.13;;;1.48;;
66012;SDS011;52783;50.502;8.190;2023-03-11T12:25:29;2.88;;;1.40;;
66012;SDS011;52783;50.502;8.190;2023-03-11T12:30:57;3.30;;;1.55;;
66012;SDS011;52783;50.502;8.190;2023-03-11T12:33:28;6.55;;;1.50;;
66012;SDS011;52783;50.502;8.190;2023-03-11T12:36:01;7.03;;;1.60;;
66012;SDS011;52783;50.502;8.190;2023-03-11T12:38:37;2.42;;;1.55;;
66012;SDS011;52783;50.502;8.190;2023-03-11T12:46:02;6.75;;;1.60;;
66012;SDS011;52783;50.502;8.190;2023-03-11T12:50:54;3.03;;;1.80;;
66012;SDS011;52783;50.502;8.190;2023-03-11T12:53:32;2.55;;;1.40;;
66012;SDS011;52783;50.502;8.190;2023-03-11T12:58:59;3.50;;;1.63;;
66012;SDS011;52783;50.502;8.190;2023-03-11T13:01:42;4.30;;;1.38;;
66012;SDS011;52783;50.502;8.190;2023-03-11T13:04:19;7.45;;;2.40;;
66012;SDS011;52783;50.502;8.190;2023-03-11T13:09:21;2.95;;;1.60;;
66012;SDS011;52783;50.502;8.190;2023-03-11T13:11:47;3.70;;;1.60;;
66012;SDS011;52783;50.502;8.190;2023-03-11T13:14:18;4.82;;;1.60;;
66012;SDS011;52783;50.502;8.190;2023-03-11T13:16:53;1.95;;;1.40;;
66012;SDS011;52783;50.502;8.190;2023-03-11T13:21:56;2.33;;;1.55;;
66012;SDS011;52783;50.502;8.190;2023-03-11T13:32:17;5.00;;;1.80;;
66012;SDS011;52783;50.502;8.190;2023-03-11T13:35:18;8.45;;;1.70;;
66012;SDS011;52783;50.502;8.190;2023-03-11T13:40:41;7.60;;;2.10;;
66012;SDS011;52783;50.502;8.190;2023-03-11T13:46:30;6.05;;;2.47;;
66012;SDS011;52783;50.502;8.190;2023-03-11T13:49:04;6.13;;;2.13;;
66012;SDS011;52783;50.502;8.190;2023-03-11T13:51:37;2.15;;;1.80;;
66012;SDS011;52783;50.502;8.190;2023-03-11T13:57:19;6.88;;;3.15;;
66012;SDS011;52783;50.502;8.190;2023-03-11T13:59:50;6.88;;;1.77;;
66012;SDS011;52783;50.502;8.190;2023-03-11T14:02:18;4.07;;;1.85;;
66012;SDS011;52783;50.502;8.190;2023-03-11T14:07:39;8.00;;;3.50;;
66012;SDS011;52783;50.502;8.190;2023-03-11T14:12:36;5.20;;;3.00;;
66012;SDS011;52783;50.502;8.190;2023-03-11T14:15:06;4.40;;;2.10;;
66012;SDS011;52783;50.502;8.190;2023-03-11T14:17:33;6.00;;;2.10;;
66012;SDS011;52783;50.502;8.190;2023-03-11T14:20:12;8.05;;;2.40;;
66012;SDS011;52783;50.502;8.190;2023-03-11T14:22:50;2.85;;;1.60;;
66012;SDS011;52783;50.502;8.190;2023-03-11T14:25:19;2.90;;;1.60;;
66012;SDS011;52783;50.502;8.190;2023-03-11T14:27:52;4.05;;;2.00;;
66012;SDS011;52783;50.502;8.190;2023-03-11T14:30:20;3.92;;;1.95;;
66012;SDS011;52783;50.502;8.190;2023-03-11T14:32:55;6.80;;;2.13;;
66012;SDS011;52783;50.502;8.190;2023-03-11T14:35:23;6.85;;;3.17;;
66012;SDS011;52783;50.502;8.190;2023-03-11T14:37:48;4.15;;;1.80;;
66012;SDS011;52783;50.502;8.190;2023-03-11T14:40:28;2.03;;;1.60;;
66012;SDS011;52783;50.502;8.190;2023-03-11T14:42:54;4.50;;;2.30;;
66012;SDS011;52783;50.502;8.190;2023-03-11T14:45:25;2.78;;;1.65;;
66012;SDS011;52783;50.502;8.190;2023-03-11T14:50:24;2.78;;;1.33;;
66012;SDS011;52783;50.502;8.190;2023-03-11T15:03:57;2.20;;;1.55;;
66012;SDS011;52783;50.502;8.190;2023-03-11T15:06:25;7.30;;;1.67;;
66012;SDS011;52783;50.502;8.190;2023-03-11T15:09:00;8.70;;;1.90;;
66012;SDS011;52783;50.502;8.190;2023-03-11T15:11:29;4.07;;;1.90;;
66012;SDS011;52783;50.502;8.190;2023-03-11T15:14:08;3.13;;;1.42;;
66012;SDS011;52783;50.502;8.190;2023-03-11T15:16:48;4.88;;;1.98;;
66012;SDS011;52783;50.502;8.190;2023-03-11T15:21:52;1.73;;;1.30;;
66012;SDS011;52783;50.502;8.190;2023-03-11T15:24:23;7.18;;;1.85;;
66012;SDS011;52783;50.502;8.190;2023-03-11T15:29:21;8.88;;;3.30;;
66012;SDS011;52783;50.502;8.190;2023-03-11T15:31:47;6.28;;;3.25;;
66012;SDS011;52783;50.502;8.190;2023-03-11T15:39:17;6.55;;;3.00;;
66012;SDS011;52783;50.502;8.190;2023-03-11T15:42:00;4.85;;;1.80;;
66012;SDS011;52783;50.502;8.190;2023-03-11T15:47:04;3.17;;;1.60;;
66012;SDS011;52783;50.502;8.190;2023-03-11T15:49:35;5.95;;;1.60;;
66012;SDS011;52783;50.502;8.190;2023-03-11T15:52:01;2.22;;;1.17;;
66012;SDS011;52783;50.502;8.190;2023-03-11T15:54:27;2.05;;;1.40;;
66012;SDS011;52783;50.502;8.190;2023-03-11T15:56:53;4.30;;;1.45;;
66012;SDS011;52783;50.502;8.190;2023-03-11T15:59:21;3.70;;;1.85;;
66012;SDS011;52783;50.502;8.190;2023-03-11T16:01:48;2.80;;;1.58;;
66012;SDS011;52783;50.502;8.190;2023-03-11T16:04:14;5.30;;;1.50;;
66012;SDS011;52783;50.502;8.190;2023-03-11T16:06:42;1.63;;;1.50;;
66012;SDS011;52783;50.502;8.190;2023-03-11T16:09:07;1.98;;;1.60;;
66012;SDS011;52783;50.502;8.190;2023-03-11T16:11:34;2.55;;;1.52;;
66012;SDS011;52783;50.502;8.190;2023-03-11T16:14:00;6.13;;;3.30;;
66012;SDS011;52783;50.502;8.190;2023-03-11T16:16:26;6.07;;;2.20;;
66012;SDS011;52783;50.502;8.190;2023-03-11T16:18:51;8.18;;;2.00;;
66012;SDS011;52783;50.502;8.190;2023-03-11T16:21:18;8.65;;;2.22;;
66012;SDS011;52783;50.502;8.190;2023-03-11T16:23:45;5.45;;;2.40;;
66012;SDS011;52783;50.502;8.190;2023-03-11T16:26:13;4.93;;;2.33;;
66012;SDS011;52783;50.502;8.190;2023-03-11T16:28:39;7.72;;;2.45;;
66012;SDS011;52783;50.502;8.190;2023-03-11T16:31:05;5.15;;;3.03;;
66012;SDS011;52783;50.502;8.190;2023-03-11T16:33:33;8.27;;;3.78;;
66012;SDS011;52783;50.502;8.190;2023-03-11T16:35:59;5.03;;;2.38;;
66012;SDS011;52783;50.502;8.190;2023-03-11T16:38:25;5.70;;;2.28;;
66012;SDS011;52783;50.502;8.190;2023-03-11T16:40:58;4.60;;;1.77;;